sensor_id;sensor_type;location;lat;lon;timestamp;P1;durP1;ratioP1;P2;durP2;ratioP2
48623;SDS011;34422;45.802;16.114;2023-05-23T00:01:20;12.13;;;9.73;;
48623;SDS011;34422;45.802;16.114;2023-05-23T00:03:48;12.63;;;9.85;;
48623;SDS011;34422;45.802;16.114;2023-05-23T00:06:18;18.67;;;9.57;;
48623;SDS011;34422;45.802;16.114;2023-05-23T00:08:46;13.90;;;10.20;;
48623;SDS011;34422;45.802;16.114;2023-05-23T00:11:13;12.00;;;9.00;;
48623;SDS011;34422;45.802;16.114;2023-05-23T00:13:41;12.70;;;9.00;;
48623;SDS011;34422;45.802;16.114;2023-05-23T00:16:08;13.90;;;9.68;;
48623;SDS011;34422;45.802;16.114;2023-05-23T00:18:36;15.55;;;10.43;;
48623;SDS011;34422;45.802;16.114;2023-05-23T00:21:03;13.57;;;9.98;;
48623;SDS011;34422;45.802;16.114;2023-05-23T00:23:30;13.63;;;9.60;;
48623;SDS011;34422;45.802;16.114;2023-05-23T00:25:59;13.63;;;9.82;;
48623;SDS011;34422;45.802;16.114;2023-05-23T00:28:25;12.60;;;9.65;;
48623;SDS011;34422;45.802;16.114;2023-05-23T00:30:53;13.38;;;9.38;;
48623;SDS011;34422;45.802;16.114;2023-05-23T00:33:20;15.57;;;10.63;;
48623;SDS011;34422;45.802;16.114;2023-05-23T00:35:47;17.42;;;10.80;;
48623;SDS011;34422;45.802;16.114;2023-05-23T00:38:15;14.23;;;11.52;;
48623;SDS011;34422;45.802;16.114;2023-05-23T00:40:42;15.35;;;11.48;;
48623;SDS011;34422;45.802;16.114;2023-05-23T00:43:09;14.25;;;11.10;;
48623;SDS011;34422;45.802;16.114;2023-05-23T00:45:35;15.13;;;10.90;;
48623;SDS011;34422;45.802;16.114;2023-05-23T00:48:02;13.60;;;10.88;;
48623;SDS011;34422;45.802;16.114;2023-05-23T00:50:30;16.80;;;11.52;;
48623;SDS011;34422;45.802;16.114;2023-05-23T00:52:58;16.63;;;12.85;;
48623;SDS011;34422;45.802;16.114;2023-05-23T00:55:27;16.23;;;11.60;;
48623;SDS011;34422;45.802;16.114;2023-05-23T00:57:54;15.80;;;12.65;;
48623;SDS011;34422;45.802;16.114;2023-05-23T01:00:22;16.05;;;12.23;;
48623;SDS011;34422;45.802;16.114;2023-05-23T01:02:50;14.98;;;11.32;;
48623;SDS011;34422;45.802;16.114;2023-05-23T01:05:17;14.88;;;11.52;;
48623;SDS011;34422;45.802;16.114;2023-05-23T01:07:45;16.33;;;11.82;;
48623;SDS011;34422;45.802;16.114;2023-05-23T01:10:17;15.98;;;12.73;;
48623;SDS011;34422;45.802;16.114;2023-05-23T01:12:53;15.90;;;12.65;;
48623;SDS011;34422;45.802;16.114;2023-05-23T01:15:22;17.52;;;12.98;;
48623;SDS011;34422;45.802;16.114;2023-05-23T01:20:32;14.57;;;11.82;;
48623;SDS011;34422;45.802;16.114;2023-05-23T01:28:47;18.08;;;12.75;;
48623;SDS011;34422;45.802;16.114;2023-05-23T01:31:17;19.48;;;12.27;;
48623;SDS011;34422;45.802;16.114;2023-05-23T01:33:45;17.02;;;12.43;;
48623;SDS011;34422;45.802;16.114;2023-05-23T01:36:15;15.40;;;12.82;;
48623;SDS011;34422;45.802;16.114;2023-05-23T01:38:42;16.27;;;13.63;;
48623;SDS011;34422;45.802;16.114;2023-05-23T01:41:09;14.00;;;11.52;;
48623;SDS011;34422;45.802;16.114;2023-05-23T01:43:36;16.08;;;12.25;;
48623;SDS011;34422;45.802;16.114;2023-05-23T01:46:03;15.50;;;11.70;;
48623;SDS011;34422;45.802;16.114;2023-05-23T01:48:32;18.65;;;13.35;;
48623;SDS011;34422;45.802;16.114;2023-05-23T01:50:59;16.75;;;13.35;;
48623;SDS011;34422;45.802;16.114;2023-05-23T01:53:27;19.27;;;13.85;;
48623;SDS011;34422;45.802;16.114;2023-05-23T01:55:55;16.92;;;13.80;;
48623;SDS011;34422;45.802;16.114;2023-05-23T01:58:22;14.95;;;13.35;;
48623;SDS011;34422;45.802;16.114;2023-05-23T02:00:49;19.25;;;12.40;;
48623;SDS011;34422;45.802;16.114;2023-05-23T02:03:16;15.68;;;13.30;;
48623;SDS011;34422;45.802;16.114;2023-05-23T02:05:43;17.45;;;13.45;;
48623;SDS011;34422;45.802;16.114;2023-05-23T02:08:10;18.45;;;14.15;;
48623;SDS011;34422;45.802;16.114;2023-05-23T02:10:37;18.40;;;14.88;;
48623;SDS011;34422;45.802;16.114;2023-05-23T02:13:03;17.48;;;13.73;;
48623;SDS011;34422;45.802;16.114;2023-05-23T02:15:30;19.70;;;14.10;;
48623;SDS011;34422;45.802;16.114;2023-05-23T02:17:57;16.13;;;13.27;;
48623;SDS011;34422;45.802;16.114;2023-05-23T02:20:24;17.00;;;13.52;;
48623;SDS011;34422;45.802;16.114;2023-05-23T02:22:51;18.20;;;14.07;;
48623;SDS011;34422;45.802;16.114;2023-05-23T02:25:18;17.20;;;13.02;;
48623;SDS011;34422;45.802;16.114;2023-05-23T02:27:45;18.50;;;13.48;;
48623;SDS011;34422;45.802;16.114;2023-05-23T02:30:11;16.63;;;13.65;;
48623;SDS011;34422;45.802;16.114;2023-05-23T02:32:38;19.60;;;13.82;;
48623;SDS011;34422;45.802;16.114;2023-05-23T02:35:05;17.15;;;13.27;;
48623;SDS011;34422;45.802;16.114;2023-05-23T02:37:32;17.92;;;13.25;;
48623;SDS011;34422;45.802;16.114;2023-05-23T02:39:59;15.30;;;12.63;;
48623;SDS011;34422;45.802;16.114;2023-05-23T02:42:26;18.00;;;13.70;;
48623;SDS011;34422;45.802;16.114;2023-05-23T02:44:53;16.90;;;14.00;;
48623;SDS011;34422;45.802;16.114;2023-05-23T02:47:20;18.70;;;14.07;;
48623;SDS011;34422;45.802;16.114;2023-05-23T02:49:47;17.92;;;14.02;;
48623;SDS011;34422;45.802;16.114;2023-05-23T02:52:13;19.02;;;13.68;;
48623;SDS011;34422;45.802;16.114;2023-05-23T02:54:40;20.00;;;14.85;;
48623;SDS011;34422;45.802;16.114;2023-05-23T02:57:07;18.13;;;13.15;;
48623;SDS011;34422;45.802;16.114;2023-05-23T02:59:34;18.50;;;14.30;;
48623;SDS011;34422;45.802;16.114;2023-05-23T03:02:01;18.17;;;13.20;;
48623;SDS011;34422;45.802;16.114;2023-05-23T03:04:28;22.35;;;15.18;;
48623;SDS011;34422;45.802;16.114;2023-05-23T03:06:55;24.77;;;13.93;;
48623;SDS011;34422;45.802;16.114;2023-05-23T03:09:21;18.92;;;14.93;;
48623;SDS011;34422;45.802;16.114;2023-05-23T03:11:48;18.92;;;13.43;;
48623;SDS011;34422;45.802;16.114;2023-05-23T03:14:15;20.17;;;13.60;;
48623;SDS011;34422;45.802;16.114;2023-05-23T03:16:42;17.30;;;13.25;;
48623;SDS011;34422;45.802;16.114;2023-05-23T03:19:09;17.88;;;13.00;;
48623;SDS011;34422;45.802;16.114;2023-05-23T03:21:36;16.23;;;13.63;;
48623;SDS011;34422;45.802;16.114;2023-05-23T03:24:03;19.33;;;12.23;;
48623;SDS011;34422;45.802;16.114;2023-05-23T03:26:30;15.68;;;12.65;;
48623;SDS011;34422;45.802;16.114;2023-05-23T03:28:57;16.55;;;13.25;;
48623;SDS011;34422;45.802;16.114;2023-05-23T03:31:23;16.38;;;12.13;;
48623;SDS011;34422;45.802;16.114;2023-05-23T03:33:50;17.63;;;13.25;;
48623;SDS011;34422;45.802;16.114;2023-05-23T03:36:18;20.58;;;14.25;;
48623;SDS011;34422;45.802;16.114;2023-05-23T03:38:47;15.60;;;12.73;;
48623;SDS011;34422;45.802;16.114;2023-05-23T03:41:13;16.52;;;12.98;;
48623;SDS011;34422;45.802;16.114;2023-05-23T03:43:40;16.90;;;12.70;;
48623;SDS011;34422;45.802;16.114;2023-05-23T03:46:07;16.40;;;12.77;;
48623;SDS011;34422;45.802;16.114;2023-05-23T03:48:34;15.30;;;12.07;;
48623;SDS011;34422;45.802;16.114;2023-05-23T03:51:01;15.93;;;13.13;;
48623;SDS011;34422;45.802;16.114;2023-05-23T03:53:28;18.35;;;13.48;;
48623;SDS011;34422;45.802;16.114;2023-05-23T03:55:55;15.43;;;12.07;;
48623;SDS011;34422;45.802;16.114;2023-05-23T03:58:22;17.88;;;13.93;;
48623;SDS011;34422;45.802;16.114;2023-05-23T04:00:48;15.05;;;13.00;;
48623;SDS011;34422;45.802;16.114;2023-05-23T04:03:15;21.13;;;13.77;;
48623;SDS011;34422;45.802;16.114;2023-05-23T04:05:42;18.42;;;13.63;;
48623;SDS011;34422;45.802;16.114;2023-05-23T04:08:09;16.50;;;12.18;;
48623;SDS011;34422;45.802;16.114;2023-05-23T04:10:36;17.65;;;12.73;;
48623;SDS011;34422;45.802;16.114;2023-05-23T04:13:03;14.82;;;12.25;;
48623;SDS011;34422;45.802;16.114;2023-05-23T04:15:30;16.08;;;12.98;;
48623;SDS011;34422;45.802;16.114;2023-05-23T04:17:59;16.98;;;13.23;;
48623;SDS011;34422;45.802;16.114;2023-05-23T04:20:26;20.33;;;13.65;;
48623;SDS011;34422;45.802;16.114;2023-05-23T04:22:53;19.83;;;14.27;;
48623;SDS011;34422;45.802;16.114;2023-05-23T04:25:20;19.15;;;14.85;;
48623;SDS011;34422;45.802;16.114;2023-05-23T04:27:47;17.88;;;14.45;;
48623;SDS011;34422;45.802;16.114;2023-05-23T04:30:14;18.45;;;14.52;;
48623;SDS011;34422;45.802;16.114;2023-05-23T04:32:43;16.77;;;13.68;;
48623;SDS011;34422;45.802;16.114;2023-05-23T04:35:10;16.98;;;13.45;;
48623;SDS011;34422;45.802;16.114;2023-05-23T04:37:37;23.88;;;13.32;;
48623;SDS011;34422;45.802;16.114;2023-05-23T04:40:05;14.68;;;12.23;;
48623;SDS011;34422;45.802;16.114;2023-05-23T04:42:32;19.55;;;11.43;;
48623;SDS011;34422;45.802;16.114;2023-05-23T04:44:59;17.67;;;12.00;;
48623;SDS011;34422;45.802;16.114;2023-05-23T04:47:27;16.52;;;12.13;;
48623;SDS011;34422;45.802;16.114;2023-05-23T04:49:54;24.52;;;12.80;;
48623;SDS011;34422;45.802;16.114;2023-05-23T04:52:22;14.68;;;12.38;;
48623;SDS011;34422;45.802;16.114;2023-05-23T04:54:49;14.15;;;10.45;;
48623;SDS011;34422;45.802;16.114;2023-05-23T04:57:16;15.60;;;11.45;;
48623;SDS011;34422;45.802;16.114;2023-05-23T04:59:43;16.73;;;12.10;;
48623;SDS011;34422;45.802;16.114;2023-05-23T05:02:09;18.15;;;12.15;;
48623;SDS011;34422;45.802;16.114;2023-05-23T05:04:36;16.73;;;11.70;;
48623;SDS011;34422;45.802;16.114;2023-05-23T05:07:03;15.10;;;11.52;;
48623;SDS011;34422;45.802;16.114;2023-05-23T05:09:30;15.50;;;12.02;;
48623;SDS011;34422;45.802;16.114;2023-05-23T05:11:57;13.90;;;9.80;;
48623;SDS011;34422;45.802;16.114;2023-05-23T05:14:27;15.35;;;10.43;;
48623;SDS011;34422;45.802;16.114;2023-05-23T05:16:54;14.85;;;10.90;;
48623;SDS011;34422;45.802;16.114;2023-05-23T05:19:22;16.15;;;10.65;;
48623;SDS011;34422;45.802;16.114;2023-05-23T05:21:49;16.27;;;11.77;;
48623;SDS011;34422;45.802;16.114;2023-05-23T05:24:16;16.25;;;11.77;;
48623;SDS011;34422;45.802;16.114;2023-05-23T05:26:46;14.10;;;10.48;;
48623;SDS011;34422;45.802;16.114;2023-05-23T05:29:14;18.75;;;10.93;;
48623;SDS011;34422;45.802;16.114;2023-05-23T05:31:41;16.65;;;11.35;;
48623;SDS011;34422;45.802;16.114;2023-05-23T05:34:10;17.70;;;10.35;;
48623;SDS011;34422;45.802;16.114;2023-05-23T05:36:38;13.68;;;9.70;;
48623;SDS011;34422;45.802;16.114;2023-05-23T05:39:11;13.93;;;10.45;;
48623;SDS011;34422;45.802;16.114;2023-05-23T05:41:39;17.88;;;15.48;;
48623;SDS011;34422;45.802;16.114;2023-05-23T05:44:07;16.98;;;13.90;;
48623;SDS011;34422;45.802;16.114;2023-05-23T05:46:34;15.25;;;11.90;;
48623;SDS011;34422;45.802;16.114;2023-05-23T05:49:01;15.52;;;11.15;;
48623;SDS011;34422;45.802;16.114;2023-05-23T05:51:27;14.40;;;9.75;;
48623;SDS011;34422;45.802;16.114;2023-05-23T05:53:54;11.30;;;8.90;;
48623;SDS011;34422;45.802;16.114;2023-05-23T05:56:21;13.13;;;9.70;;
48623;SDS011;34422;45.802;16.114;2023-05-23T05:58:48;13.82;;;10.73;;
48623;SDS011;34422;45.802;16.114;2023-05-23T06:01:15;15.15;;;10.93;;
48623;SDS011;34422;45.802;16.114;2023-05-23T06:03:43;13.85;;;9.88;;
48623;SDS011;34422;45.802;16.114;2023-05-23T06:06:09;15.00;;;11.27;;
48623;SDS011;34422;45.802;16.114;2023-05-23T06:08:36;13.25;;;10.40;;
48623;SDS011;34422;45.802;16.114;2023-05-23T06:11:03;15.63;;;10.30;;
48623;SDS011;34422;45.802;16.114;2023-05-23T06:13:30;17.17;;;11.40;;
48623;SDS011;34422;45.802;16.114;2023-05-23T06:15:57;15.77;;;10.95;;
48623;SDS011;34422;45.802;16.114;2023-05-23T06:18:24;14.25;;;10.30;;
48623;SDS011;34422;45.802;16.114;2023-05-23T06:20:50;14.48;;;12.27;;
48623;SDS011;34422;45.802;16.114;2023-05-23T06:23:17;15.48;;;11.63;;
48623;SDS011;34422;45.802;16.114;2023-05-23T06:25:44;15.15;;;10.48;;
48623;SDS011;34422;45.802;16.114;2023-05-23T06:28:11;11.90;;;10.18;;
48623;SDS011;34422;45.802;16.114;2023-05-23T06:30:37;13.98;;;10.77;;
48623;SDS011;34422;45.802;16.114;2023-05-23T06:33:04;24.52;;;11.82;;
48623;SDS011;34422;45.802;16.114;2023-05-23T06:35:31;17.85;;;12.70;;
48623;SDS011;34422;45.802;16.114;2023-05-23T06:37:58;22.85;;;15.75;;
48623;SDS011;34422;45.802;16.114;2023-05-23T06:40:24;17.05;;;12.88;;
48623;SDS011;34422;45.802;16.114;2023-05-23T06:42:51;18.60;;;13.10;;
48623;SDS011;34422;45.802;16.114;2023-05-23T06:45:18;14.90;;;11.88;;
48623;SDS011;34422;45.802;16.114;2023-05-23T06:47:45;14.10;;;11.63;;
48623;SDS011;34422;45.802;16.114;2023-05-23T06:50:13;19.48;;;11.93;;
48623;SDS011;34422;45.802;16.114;2023-05-23T06:52:40;14.60;;;12.15;;
48623;SDS011;34422;45.802;16.114;2023-05-23T06:55:08;16.35;;;12.18;;
48623;SDS011;34422;45.802;16.114;2023-05-23T06:57:35;15.82;;;12.30;;
48623;SDS011;34422;45.802;16.114;2023-05-23T07:00:02;17.73;;;11.35;;
48623;SDS011;34422;45.802;16.114;2023-05-23T07:02:29;15.70;;;11.70;;
48623;SDS011;34422;45.802;16.114;2023-05-23T07:04:55;15.75;;;11.82;;
48623;SDS011;34422;45.802;16.114;2023-05-23T07:07:22;16.60;;;11.88;;
48623;SDS011;34422;45.802;16.114;2023-05-23T07:09:49;17.23;;;13.20;;
48623;SDS011;34422;45.802;16.114;2023-05-23T07:12:16;15.25;;;11.63;;
48623;SDS011;34422;45.802;16.114;2023-05-23T07:14:42;16.67;;;12.00;;
48623;SDS011;34422;45.802;16.114;2023-05-23T07:17:09;14.82;;;10.98;;
48623;SDS011;34422;45.802;16.114;2023-05-23T07:19:36;13.13;;;10.52;;
48623;SDS011;34422;45.802;16.114;2023-05-23T07:22:03;13.18;;;10.80;;
48623;SDS011;34422;45.802;16.114;2023-05-23T07:24:30;13.82;;;10.35;;
48623;SDS011;34422;45.802;16.114;2023-05-23T07:26:57;12.82;;;9.98;;
48623;SDS011;34422;45.802;16.114;2023-05-23T07:29:24;12.93;;;9.23;;
48623;SDS011;34422;45.802;16.114;2023-05-23T07:31:51;19.60;;;10.93;;
48623;SDS011;34422;45.802;16.114;2023-05-23T07:34:18;16.80;;;11.30;;
48623;SDS011;34422;45.802;16.114;2023-05-23T07:36:45;16.55;;;11.05;;
48623;SDS011;34422;45.802;16.114;2023-05-23T07:39:12;10.98;;;9.55;;
48623;SDS011;34422;45.802;16.114;2023-05-23T07:41:40;16.58;;;9.80;;
48623;SDS011;34422;45.802;16.114;2023-05-23T07:44:07;13.23;;;9.00;;
48623;SDS011;34422;45.802;16.114;2023-05-23T07:46:34;17.92;;;10.27;;
48623;SDS011;34422;45.802;16.114;2023-05-23T07:49:01;12.57;;;9.25;;
48623;SDS011;34422;45.802;16.114;2023-05-23T07:51:28;14.05;;;9.45;;
48623;SDS011;34422;45.802;16.114;2023-05-23T07:53:56;12.90;;;9.82;;
48623;SDS011;34422;45.802;16.114;2023-05-23T07:56:27;12.88;;;9.93;;
48623;SDS011;34422;45.802;16.114;2023-05-23T07:58:53;13.45;;;9.52;;
48623;SDS011;34422;45.802;16.114;2023-05-23T08:01:20;12.23;;;8.68;;
48623;SDS011;34422;45.802;16.114;2023-05-23T08:03:47;13.00;;;8.82;;
48623;SDS011;34422;45.802;16.114;2023-05-23T08:06:14;12.05;;;8.00;;
48623;SDS011;34422;45.802;16.114;2023-05-23T08:08:41;14.60;;;9.10;;
48623;SDS011;34422;45.802;16.114;2023-05-23T08:11:09;15.07;;;9.95;;
48623;SDS011;34422;45.802;16.114;2023-05-23T08:13:36;14.05;;;9.10;;
48623;SDS011;34422;45.802;16.114;2023-05-23T08:16:02;12.73;;;7.97;;
48623;SDS011;34422;45.802;16.114;2023-05-23T08:18:29;15.10;;;9.88;;
48623;SDS011;34422;45.802;16.114;2023-05-23T08:20:56;14.55;;;9.65;;
48623;SDS011;34422;45.802;16.114;2023-05-23T08:23:23;9.80;;;7.38;;
48623;SDS011;34422;45.802;16.114;2023-05-23T08:25:51;16.00;;;9.77;;
48623;SDS011;34422;45.802;16.114;2023-05-23T08:28:18;13.27;;;9.32;;
48623;SDS011;34422;45.802;16.114;2023-05-23T08:30:44;12.90;;;8.13;;
48623;SDS011;34422;45.802;16.114;2023-05-23T08:33:12;13.45;;;8.00;;
48623;SDS011;34422;45.802;16.114;2023-05-23T08:35:39;12.23;;;8.00;;
48623;SDS011;34422;45.802;16.114;2023-05-23T08:38:08;10.00;;;6.90;;
48623;SDS011;34422;45.802;16.114;2023-05-23T08:40:35;10.10;;;7.57;;
48623;SDS011;34422;45.802;16.114;2023-05-23T08:43:03;16.20;;;7.90;;
48623;SDS011;34422;45.802;16.114;2023-05-23T08:45:30;13.65;;;8.02;;
48623;SDS011;34422;45.802;16.114;2023-05-23T08:47:58;8.75;;;6.40;;
48623;SDS011;34422;45.802;16.114;2023-05-23T08:50:27;12.55;;;6.68;;
48623;SDS011;34422;45.802;16.114;2023-05-23T08:52:56;13.30;;;6.78;;
48623;SDS011;34422;45.802;16.114;2023-05-23T08:55:25;10.77;;;6.53;;
48623;SDS011;34422;45.802;16.114;2023-05-23T08:57:53;11.77;;;6.60;;
48623;SDS011;34422;45.802;16.114;2023-05-23T09:00:21;9.15;;;6.13;;
48623;SDS011;34422;45.802;16.114;2023-05-23T09:02:50;11.27;;;5.87;;
48623;SDS011;34422;45.802;16.114;2023-05-23T09:05:17;13.02;;;6.38;;
48623;SDS011;34422;45.802;16.114;2023-05-23T09:07:44;12.57;;;6.65;;
48623;SDS011;34422;45.802;16.114;2023-05-23T09:10:14;12.07;;;6.50;;
48623;SDS011;34422;45.802;16.114;2023-05-23T09:12:45;14.15;;;7.40;;
48623;SDS011;34422;45.802;16.114;2023-05-23T09:15:12;10.55;;;6.03;;
48623;SDS011;34422;45.802;16.114;2023-05-23T09:17:40;9.38;;;5.95;;
48623;SDS011;34422;45.802;16.114;2023-05-23T09:20:10;10.55;;;6.72;;
48623;SDS011;34422;45.802;16.114;2023-05-23T09:22:39;9.77;;;6.60;;
48623;SDS011;34422;45.802;16.114;2023-05-23T09:25:06;9.15;;;6.70;;
48623;SDS011;34422;45.802;16.114;2023-05-23T09:27:33;11.93;;;7.60;;
48623;SDS011;34422;45.802;16.114;2023-05-23T09:30:04;10.18;;;6.63;;
48623;SDS011;34422;45.802;16.114;2023-05-23T09:32:32;8.48;;;6.40;;
48623;SDS011;34422;45.802;16.114;2023-05-23T09:35:00;9.52;;;6.60;;
48623;SDS011;34422;45.802;16.114;2023-05-23T09:37:31;10.55;;;6.57;;
48623;SDS011;34422;45.802;16.114;2023-05-23T09:40:00;10.10;;;7.45;;
48623;SDS011;34422;45.802;16.114;2023-05-23T09:42:33;9.50;;;6.18;;
48623;SDS011;34422;45.802;16.114;2023-05-23T09:45:00;9.88;;;6.13;;
48623;SDS011;34422;45.802;16.114;2023-05-23T09:47:27;15.73;;;7.13;;
48623;SDS011;34422;45.802;16.114;2023-05-23T09:49:54;7.57;;;6.03;;
48623;SDS011;34422;45.802;16.114;2023-05-23T09:52:21;10.52;;;6.60;;
48623;SDS011;34422;45.802;16.114;2023-05-23T09:54:48;9.35;;;6.38;;
48623;SDS011;34422;45.802;16.114;2023-05-23T09:57:15;14.98;;;6.53;;
48623;SDS011;34422;45.802;16.114;2023-05-23T09:59:44;10.70;;;6.90;;
48623;SDS011;34422;45.802;16.114;2023-05-23T10:02:23;9.32;;;6.57;;
48623;SDS011;34422;45.802;16.114;2023-05-23T10:05:25;13.38;;;5.97;;
48623;SDS011;34422;45.802;16.114;2023-05-23T10:07:59;9.40;;;6.00;;
48623;SDS011;34422;45.802;16.114;2023-05-23T10:13:01;14.15;;;7.75;;
48623;SDS011;34422;45.802;16.114;2023-05-23T10:15:36;10.50;;;6.88;;
48623;SDS011;34422;45.802;16.114;2023-05-23T10:18:09;8.13;;;6.15;;
48623;SDS011;34422;45.802;16.114;2023-05-23T10:20:42;8.52;;;5.85;;
48623;SDS011;34422;45.802;16.114;2023-05-23T10:23:14;11.15;;;5.65;;
48623;SDS011;34422;45.802;16.114;2023-05-23T10:25:42;8.82;;;5.80;;
48623;SDS011;34422;45.802;16.114;2023-05-23T10:28:09;9.52;;;5.85;;
48623;SDS011;34422;45.802;16.114;2023-05-23T10:30:37;10.32;;;7.10;;
48623;SDS011;34422;45.802;16.114;2023-05-23T10:33:04;7.68;;;5.47;;
48623;SDS011;34422;45.802;16.114;2023-05-23T10:35:40;14.77;;;9.25;;
48623;SDS011;34422;45.802;16.114;2023-05-23T10:49:16;8.60;;;5.57;;
48623;SDS011;34422;45.802;16.114;2023-05-23T10:51:50;10.77;;;5.63;;
48623;SDS011;34422;45.802;16.114;2023-05-23T10:54:19;7.22;;;4.95;;
48623;SDS011;34422;45.802;16.114;2023-05-23T10:56:47;8.18;;;5.93;;
48623;SDS011;34422;45.802;16.114;2023-05-23T10:59:28;9.02;;;6.55;;
48623;SDS011;34422;45.802;16.114;2023-05-23T11:01:55;9.55;;;4.72;;
48623;SDS011;34422;45.802;16.114;2023-05-23T11:04:25;9.68;;;5.68;;
48623;SDS011;34422;45.802;16.114;2023-05-23T11:06:53;8.95;;;5.60;;
48623;SDS011;34422;45.802;16.114;2023-05-23T11:09:22;12.55;;;6.18;;
48623;SDS011;34422;45.802;16.114;2023-05-23T11:14:20;7.40;;;5.45;;
48623;SDS011;34422;45.802;16.114;2023-05-23T11:17:02;7.88;;;5.07;;
48623;SDS011;34422;45.802;16.114;2023-05-23T11:19:55;6.95;;;4.72;;
48623;SDS011;34422;45.802;16.114;2023-05-23T11:22:26;7.68;;;4.75;;
48623;SDS011;34422;45.802;16.114;2023-05-23T11:24:55;6.95;;;4.97;;
48623;SDS011;34422;45.802;16.114;2023-05-23T11:27:30;7.78;;;5.38;;
48623;SDS011;34422;45.802;16.114;2023-05-23T11:32:35;9.35;;;5.72;;
48623;SDS011;34422;45.802;16.114;2023-05-23T11:35:02;8.63;;;5.53;;
48623;SDS011;34422;45.802;16.114;2023-05-23T11:37:31;13.50;;;7.18;;
48623;SDS011;34422;45.802;16.114;2023-05-23T11:39:58;10.07;;;5.05;;
48623;SDS011;34422;45.802;16.114;2023-05-23T11:42:45;8.85;;;4.93;;
48623;SDS011;34422;45.802;16.114;2023-05-23T11:45:12;8.73;;;4.45;;
48623;SDS011;34422;45.802;16.114;2023-05-23T11:47:40;6.50;;;4.43;;
48623;SDS011;34422;45.802;16.114;2023-05-23T11:50:07;7.95;;;4.93;;
48623;SDS011;34422;45.802;16.114;2023-05-23T11:52:34;9.23;;;5.22;;
48623;SDS011;34422;45.802;16.114;2023-05-23T11:55:01;9.75;;;7.25;;
48623;SDS011;34422;45.802;16.114;2023-05-23T11:57:28;8.32;;;5.25;;
48623;SDS011;34422;45.802;16.114;2023-05-23T11:59:55;7.70;;;5.20;;
48623;SDS011;34422;45.802;16.114;2023-05-23T12:02:22;8.93;;;5.28;;
48623;SDS011;34422;45.802;16.114;2023-05-23T12:04:53;7.75;;;5.20;;
48623;SDS011;34422;45.802;16.114;2023-05-23T12:07:20;9.18;;;5.63;;
48623;SDS011;34422;45.802;16.114;2023-05-23T12:09:47;11.30;;;6.78;;
48623;SDS011;34422;45.802;16.114;2023-05-23T12:12:14;6.50;;;4.38;;
48623;SDS011;34422;45.802;16.114;2023-05-23T12:14:41;8.23;;;4.25;;
48623;SDS011;34422;45.802;16.114;2023-05-23T12:17:10;14.73;;;6.68;;
48623;SDS011;34422;45.802;16.114;2023-05-23T12:19:38;8.10;;;4.47;;
48623;SDS011;34422;45.802;16.114;2023-05-23T12:22:05;8.38;;;4.43;;
48623;SDS011;34422;45.802;16.114;2023-05-23T12:24:33;9.45;;;7.38;;
48623;SDS011;34422;45.802;16.114;2023-05-23T12:27:01;8.30;;;5.18;;
48623;SDS011;34422;45.802;16.114;2023-05-23T12:29:29;8.50;;;4.47;;
48623;SDS011;34422;45.802;16.114;2023-05-23T12:31:57;7.88;;;4.88;;
48623;SDS011;34422;45.802;16.114;2023-05-23T12:34:25;6.57;;;4.72;;
48623;SDS011;34422;45.802;16.114;2023-05-23T12:36:56;7.28;;;5.40;;
48623;SDS011;34422;45.802;16.114;2023-05-23T12:39:24;6.85;;;4.57;;
48623;SDS011;34422;45.802;16.114;2023-05-23T12:41:55;7.07;;;4.00;;
48623;SDS011;34422;45.802;16.114;2023-05-23T12:44:32;7.78;;;4.30;;
48623;SDS011;34422;45.802;16.114;2023-05-23T12:46:59;7.10;;;4.07;;
48623;SDS011;34422;45.802;16.114;2023-05-23T12:49:26;14.48;;;9.45;;
48623;SDS011;34422;45.802;16.114;2023-05-23T12:51:53;8.25;;;5.55;;
48623;SDS011;34422;45.802;16.114;2023-05-23T12:54:20;14.10;;;8.32;;
48623;SDS011;34422;45.802;16.114;2023-05-23T12:56:47;9.05;;;4.50;;
48623;SDS011;34422;45.802;16.114;2023-05-23T12:59:13;9.73;;;4.75;;
48623;SDS011;34422;45.802;16.114;2023-05-23T13:01:40;8.38;;;4.03;;
48623;SDS011;34422;45.802;16.114;2023-05-23T13:04:07;6.05;;;3.83;;
48623;SDS011;34422;45.802;16.114;2023-05-23T13:06:34;5.82;;;3.70;;
48623;SDS011;34422;45.802;16.114;2023-05-23T13:09:01;12.02;;;5.13;;
48623;SDS011;34422;45.802;16.114;2023-05-23T13:11:28;5.80;;;3.85;;
48623;SDS011;34422;45.802;16.114;2023-05-23T13:13:56;6.95;;;4.28;;
48623;SDS011;34422;45.802;16.114;2023-05-23T13:16:23;7.78;;;4.68;;
48623;SDS011;34422;45.802;16.114;2023-05-23T13:18:50;8.43;;;4.15;;
48623;SDS011;34422;45.802;16.114;2023-05-23T13:21:18;7.18;;;4.25;;
48623;SDS011;34422;45.802;16.114;2023-05-23T13:23:44;7.90;;;3.70;;
48623;SDS011;34422;45.802;16.114;2023-05-23T13:26:11;6.78;;;3.60;;
48623;SDS011;34422;45.802;16.114;2023-05-23T13:28:39;9.15;;;3.40;;
48623;SDS011;34422;45.802;16.114;2023-05-23T13:31:06;11.07;;;3.88;;
48623;SDS011;34422;45.802;16.114;2023-05-23T13:33:33;6.15;;;3.70;;
48623;SDS011;34422;45.802;16.114;2023-05-23T13:36:00;6.65;;;3.30;;
48623;SDS011;34422;45.802;16.114;2023-05-23T13:38:27;5.47;;;3.20;;
48623;SDS011;34422;45.802;16.114;2023-05-23T13:40:56;5.87;;;3.10;;
48623;SDS011;34422;45.802;16.114;2023-05-23T13:43:23;8.60;;;3.53;;
48623;SDS011;34422;45.802;16.114;2023-05-23T13:45:50;6.70;;;3.78;;
48623;SDS011;34422;45.802;16.114;2023-05-23T13:48:16;7.32;;;3.30;;
48623;SDS011;34422;45.802;16.114;2023-05-23T13:50:43;6.03;;;3.42;;
48623;SDS011;34422;45.802;16.114;2023-05-23T13:53:10;6.40;;;3.83;;
48623;SDS011;34422;45.802;16.114;2023-05-23T13:55:41;8.93;;;4.30;;
48623;SDS011;34422;45.802;16.114;2023-05-23T13:58:10;7.70;;;3.38;;
48623;SDS011;34422;45.802;16.114;2023-05-23T14:00:38;5.85;;;3.80;;
48623;SDS011;34422;45.802;16.114;2023-05-23T14:03:05;6.30;;;3.03;;
48623;SDS011;34422;45.802;16.114;2023-05-23T14:05:33;5.95;;;3.58;;
48623;SDS011;34422;45.802;16.114;2023-05-23T14:08:01;4.93;;;3.25;;
48623;SDS011;34422;45.802;16.114;2023-05-23T14:10:28;7.60;;;4.53;;
48623;SDS011;34422;45.802;16.114;2023-05-23T14:12:55;8.07;;;3.60;;
48623;SDS011;34422;45.802;16.114;2023-05-23T14:15:22;9.57;;;3.88;;
48623;SDS011;34422;45.802;16.114;2023-05-23T14:17:49;5.22;;;3.13;;
48623;SDS011;34422;45.802;16.114;2023-05-23T14:20:21;8.00;;;3.55;;
48623;SDS011;34422;45.802;16.114;2023-05-23T14:22:49;6.07;;;3.53;;
48623;SDS011;34422;45.802;16.114;2023-05-23T14:25:17;6.90;;;3.10;;
48623;SDS011;34422;45.802;16.114;2023-05-23T14:27:44;14.57;;;3.83;;
48623;SDS011;34422;45.802;16.114;2023-05-23T14:30:10;6.47;;;3.55;;
48623;SDS011;34422;45.802;16.114;2023-05-23T14:32:38;9.63;;;4.25;;
48623;SDS011;34422;45.802;16.114;2023-05-23T14:35:05;6.05;;;2.97;;
48623;SDS011;34422;45.802;16.114;2023-05-23T14:37:32;14.90;;;7.25;;
48623;SDS011;34422;45.802;16.114;2023-05-23T14:39:59;7.20;;;3.80;;
48623;SDS011;34422;45.802;16.114;2023-05-23T14:42:26;6.95;;;3.45;;
48623;SDS011;34422;45.802;16.114;2023-05-23T14:44:53;7.97;;;3.60;;
48623;SDS011;34422;45.802;16.114;2023-05-23T14:47:20;6.03;;;3.45;;
48623;SDS011;34422;45.802;16.114;2023-05-23T14:49:46;8.90;;;4.10;;